createdAt,value
2023-03-26T00:01:16.131Z,8.39
2023-03-26T00:11:21.584Z,8.41
2023-03-26T00:21:27.628Z,8.43
2023-03-26T00:31:31.840Z,8.43
2023-03-26T00:41:37.181Z,8.48
2023-03-26T00:51:41.832Z,8.52
2023-03-26T01:01:44.761Z,8.53
2023-03-26T01:11:49.869Z,8.47
2023-03-26T01:21:52.495Z,8.53
2023-03-26T01:32:04.138Z,8.52
2023-03-26T01:42:08.802Z,8.59
2023-03-26T01:52:15.975Z,8.53
2023-03-26T02:02:22.766Z,8.55
2023-03-26T02:12:27.340Z,8.61
2023-03-26T02:22:30.029Z,8.60
2023-03-26T02:32:34.959Z,8.51
2023-03-26T02:42:37.483Z,8.60
2023-03-26T02:52:43.010Z,8.45
2023-03-26T03:02:47.938Z,8.48
2023-03-26T03:12:52.113Z,8.39
2023-03-26T03:22:54.532Z,8.38
2023-03-26T03:32:59.866Z,8.47
2023-03-26T03:43:02.301Z,8.45
2023-03-26T03:53:06.549Z,8.72
2023-03-26T04:03:09.261Z,8.70
2023-03-26T04:13:13.585Z,8.67
2023-03-26T04:23:18.153Z,8.74
2023-03-26T04:33:22.767Z,8.71
2023-03-26T04:43:25.220Z,8.72
2023-03-26T04:53:29.023Z,8.51
2023-03-26T05:03:32.394Z,8.68
2023-03-26T05:13:36.171Z,8.58
2023-03-26T05:23:38.738Z,8.60
2023-03-26T05:33:42.606Z,8.69
2023-03-26T05:43:47.152Z,8.68
2023-03-26T05:53:51.113Z,8.73
2023-03-26T06:03:53.759Z,8.75
2023-03-26T06:13:57.598Z,8.82
2023-03-26T06:24:00.299Z,8.72
2023-03-26T06:34:04.097Z,8.59
2023-03-26T06:44:06.554Z,8.47
2023-03-26T06:54:10.593Z,8.51
2023-03-26T07:04:13.032Z,8.58
2023-03-26T07:14:16.848Z,8.60
2023-03-26T07:24:19.561Z,8.66
2023-03-26T07:34:33.621Z,8.21
2023-03-26T07:44:43.235Z,8.20
2023-03-26T07:54:47.370Z,8.37
2023-03-26T08:04:56.767Z,8.61
2023-03-26T08:15:05.517Z,8.65
2023-03-26T08:25:27.517Z,8.53
2023-03-26T08:35:31.580Z,8.58
2023-03-26T08:45:51.374Z,8.64
2023-03-26T08:55:57.135Z,8.62
2023-03-26T09:06:26.840Z,8.76
2023-03-26T09:16:48.090Z,8.97
2023-03-26T09:27:00.316Z,9.00
2023-03-26T09:37:14.844Z,9.39
2023-03-26T09:47:30.557Z,9.58
2023-03-26T09:57:45.215Z,9.75
2023-03-26T10:07:55.890Z,9.49
2023-03-26T10:18:27.070Z,9.37
2023-03-26T10:28:39.484Z,9.95
2023-03-26T10:38:53.410Z,10.48
2023-03-26T10:49:11.026Z,11.19
2023-03-26T10:59:14.761Z,10.83
2023-03-26T11:09:26.519Z,11.47
2023-03-26T11:19:31.509Z,11.49
2023-03-26T11:29:42.306Z,11.31
2023-03-26T11:39:48.850Z,11.70
2023-03-26T11:49:54.360Z,12.21
2023-03-26T11:59:59.617Z,12.71
2023-03-26T12:10:18.324Z,12.68
2023-03-26T12:20:45.653Z,13.91
2023-03-26T12:30:58.930Z,14.38
2023-03-26T12:41:05.945Z,15.08
2023-03-26T12:51:15.696Z,15.52
2023-03-26T13:01:27.584Z,17.07
2023-03-26T13:11:35.297Z,16.26
2023-03-26T13:21:43.596Z,15.23
2023-03-26T13:31:52.368Z,14.61
2023-03-26T13:42:07.137Z,15.59
